createdAt,value
2024-01-27T00:08:23.939Z,94045.44
2024-01-27T00:23:25.670Z,93884.81
2024-01-27T00:38:27.474Z,93909.31
2024-01-27T00:53:29.170Z,93954.59
2024-01-27T01:08:30.939Z,94014.66
2024-01-27T01:23:32.710Z,94059.09
2024-01-27T01:38:34.400Z,93936.41
2024-01-27T01:53:36.318Z,93754.34
2024-01-27T02:08:38.032Z,93977.88
2024-01-27T02:23:39.875Z,93698.41
2024-01-27T02:38:41.680Z,93974.81
2024-01-27T02:53:43.531Z,93803.38
2024-01-27T03:08:45.363Z,93598.91
2024-01-27T03:23:47.226Z,93779.38
2024-01-27T03:38:49.136Z,93863.31
2024-01-27T03:53:51.211Z,93830.41
2024-01-27T04:08:53.017Z,93686.59
2024-01-27T04:23:54.999Z,93841.97
2024-01-27T04:38:57.180Z,93607.47
2024-01-27T04:53:58.962Z,93904.06
2024-01-27T05:09:00.710Z,93493.06
2024-01-27T05:24:03.020Z,93843.72
2024-01-27T05:39:08.118Z,94027.97
2024-01-27T05:54:11.144Z,93880.09
2024-01-27T06:09:13.171Z,94073.47
2024-01-27T06:24:15.363Z,93617.69
2024-01-27T06:39:17.165Z,93682.56
2024-01-27T06:54:19.125Z,94022.88
2024-01-27T07:09:21.197Z,93965.25
2024-01-27T07:24:23.082Z,94103.94
2024-01-27T07:39:24.979Z,93590.91
2024-01-27T07:54:26.973Z,94160.41
2024-01-27T08:09:28.720Z,94078.50
2024-01-27T08:24:30.581Z,93837.97
2024-01-27T08:39:32.394Z,94112.44
2024-01-27T08:54:34.605Z,94092.44
2024-01-27T09:09:39.561Z,94088.47
2024-01-27T09:24:41.917Z,94013.13
2024-01-27T09:39:44.106Z,94088.91
2024-01-27T09:54:46.334Z,94218.31
2024-01-27T10:09:50.832Z,94036.28
2024-01-27T10:24:52.771Z,94292.06
2024-01-27T10:40:09.033Z,94297.00
2024-01-27T10:55:11.928Z,94019.00
2024-01-27T11:10:13.826Z,94324.19
2024-01-27T11:25:18.051Z,94217.22
2024-01-27T11:40:20.035Z,94126.06
2024-01-27T11:55:21.841Z,94095.28
2024-01-27T12:10:23.902Z,94252.66
2024-01-27T12:25:25.732Z,94049.94
2024-01-27T12:40:27.527Z,94214.31
2024-01-27T12:55:29.722Z,94334.75
2024-01-27T13:10:31.674Z,94249.03
2024-01-27T13:25:33.617Z,94160.81
2024-01-27T13:40:35.413Z,94421.56
2024-01-27T13:55:37.680Z,93712.91
2024-01-27T14:10:41.112Z,94428.22
2024-01-27T14:25:44.937Z,94125.97
2024-01-27T14:40:47.730Z,94166.22
2024-01-27T14:55:49.860Z,94164.44
2024-01-27T15:10:51.625Z,93821.25
2024-01-27T15:25:53.456Z,94484.66
2024-01-27T15:40:59.044Z,94452.84
2024-01-27T15:56:01.004Z,94362.88
2024-01-27T16:11:02.792Z,94256.28
2024-01-27T16:26:04.882Z,94446.53
2024-01-27T16:41:06.677Z,93929.53
2024-01-27T16:56:08.334Z,94411.66
2024-01-27T17:11:10.076Z,94542.03
2024-01-27T17:26:11.819Z,94435.97
2024-01-27T17:41:13.557Z,94242.28
2024-01-27T17:56:24.963Z,94394.53
2024-01-27T18:11:26.639Z,94433.00
2024-01-27T18:26:28.442Z,94500.13
2024-01-27T18:41:30.198Z,94339.84
2024-01-27T18:56:31.984Z,94404.03
2024-01-27T19:11:34.247Z,94122.69
2024-01-27T19:26:36.735Z,94251.09
2024-01-27T19:41:39.171Z,94516.59
2024-01-27T19:56:40.839Z,94423.72
2024-01-27T20:11:42.580Z,94592.72
2024-01-27T20:26:49.359Z,94476.53
2024-01-27T20:41:51.102Z,94595.16
2024-01-27T20:56:52.814Z,94490.66
2024-01-27T21:11:54.655Z,94373.75
2024-01-27T21:26:57.080Z,94600.44
2024-01-27T21:41:58.798Z,94223.31
2024-01-27T21:57:01.794Z,94521.41
2024-01-27T22:12:05.523Z,94370.88
2024-01-27T22:27:07.329Z,94396.78
2024-01-27T22:42:09.105Z,94624.25
2024-01-27T22:57:11.032Z,94401.34
2024-01-27T23:12:14.353Z,94604.81
2024-01-27T23:27:16.254Z,94250.00
2024-01-27T23:42:18.309Z,94635.75
2024-01-27T23:57:20.273Z,94584.13
